AHDZ999 DAAG-LEPA
Flight info
| Callsign | AHDZ999 |
|---|---|
| Flight time | N/A |
| Altitude | 22000 |
| Route | MOGIL1C MOGIL N859 OSGAL |
| Aircraft | A20N/M-SDE2E3FGHIRWXY/LB1 |
Departure
| Time | 2026-05-05 18:08 |
|---|---|
| Airport | Houari Boumediene Airport (DAAG) |
Arrival
| Time | N/A |
|---|---|
| Airport | Palma de Mallorca Airport (LEPA) |
| Time | Latitude | Longitude | Altitude | Speed | Heading |
|---|---|---|---|---|---|
| 2026-05-05 18:08 | 36.93267 | 3.32592 | 10933 ft | 290 kts | 352° |
| 2026-05-05 18:08 | 36.95251 | 3.32491 | 11470 ft | 293 kts | 352° |
| 2026-05-05 18:08 | 36.97305 | 3.32397 | 12019 ft | 294 kts | 352° |
| 2026-05-05 18:09 | 36.99329 | 3.32303 | 12566 ft | 295 kts | 352° |
| 2026-05-05 18:09 | 37.01386 | 3.32199 | 13131 ft | 297 kts | 352° |
| 2026-05-05 18:09 | 37.03455 | 3.32089 | 13706 ft | 298 kts | 352° |
| 2026-05-05 18:09 | 37.05537 | 3.31977 | 14226 ft | 300 kts | 352° |
| 2026-05-05 18:10 | 37.07632 | 3.31875 | 14752 ft | 303 kts | 352° |
| 2026-05-05 18:10 | 37.09744 | 3.31783 | 15281 ft | 305 kts | 352° |
| 2026-05-05 18:10 | 37.11879 | 3.31702 | 15824 ft | 308 kts | 352° |
| 2026-05-05 18:10 | 37.14027 | 3.31631 | 16375 ft | 310 kts | 352° |
| 2026-05-05 18:11 | 37.16191 | 3.31569 | 16934 ft | 313 kts | 352° |
| 2026-05-05 18:11 | 37.18379 | 3.31517 | 17508 ft | 315 kts | 352° |
| 2026-05-05 18:11 | 37.20578 | 3.31462 | 18104 ft | 317 kts | 352° |
| 2026-05-05 18:11 | 37.22790 | 3.31396 | 18630 ft | 320 kts | 352° |
| 2026-05-05 18:12 | 37.25032 | 3.31330 | 19145 ft | 324 kts | 352° |
| 2026-05-05 18:12 | 37.27297 | 3.31267 | 19668 ft | 328 kts | 352° |
| 2026-05-05 18:12 | 37.29590 | 3.31203 | 20200 ft | 332 kts | 352° |
| 2026-05-05 18:12 | 37.31914 | 3.31139 | 20744 ft | 336 kts | 352° |
| 2026-05-05 18:13 | 37.34237 | 3.31076 | 21292 ft | 340 kts | 352° |
| 2026-05-05 18:13 | 37.36614 | 3.31011 | 21855 ft | 344 kts | 352° |
| 2026-05-05 18:13 | 37.39022 | 3.30946 | 22428 ft | 348 kts | 352° |
| 2026-05-05 18:13 | 37.41459 | 3.30880 | 23014 ft | 353 kts | 352° |
| 2026-05-05 18:14 | 37.43934 | 3.30815 | 23619 ft | 357 kts | 352° |
| 2026-05-05 18:14 | 37.46423 | 3.30759 | 24119 ft | 359 kts | 352° |
| 2026-05-05 18:14 | 37.48933 | 3.30700 | 24619 ft | 362 kts | 352° |
| 2026-05-05 18:14 | 37.51461 | 3.30636 | 24870 ft | 365 kts | 352° |
| 2026-05-05 18:15 | 37.54002 | 3.30568 | 24944 ft | 365 kts | 352° |
| 2026-05-05 18:15 | 37.56540 | 3.30501 | 24953 ft | 364 kts | 352° |
| 2026-05-05 18:15 | 37.59070 | 3.30434 | 24951 ft | 364 kts | 352° |
| 2026-05-05 18:15 | 37.61605 | 3.30368 | 24951 ft | 364 kts | 352° |
| 2026-05-05 18:16 | 37.64141 | 3.30302 | 24953 ft | 364 kts | 352° |
| 2026-05-05 18:16 | 37.66670 | 3.30234 | 24950 ft | 364 kts | 352° |
| 2026-05-05 18:16 | 37.69200 | 3.30170 | 24955 ft | 363 kts | 352° |
| 2026-05-05 18:16 | 37.71695 | 3.30111 | 24948 ft | 362 kts | 352° |
| 2026-05-05 18:17 | 37.74220 | 3.30051 | 24954 ft | 363 kts | 352° |
| 2026-05-05 18:17 | 37.76735 | 3.29993 | 24946 ft | 363 kts | 352° |
| 2026-05-05 18:17 | 37.79265 | 3.29934 | 24946 ft | 363 kts | 352° |
| 2026-05-05 18:17 | 37.81789 | 3.29876 | 24949 ft | 363 kts | 352° |
| 2026-05-05 18:18 | 37.84283 | 3.29817 | 24950 ft | 363 kts | 352° |
| 2026-05-05 18:18 | 37.86809 | 3.29757 | 24951 ft | 363 kts | 352° |
| 2026-05-05 18:18 | 37.89338 | 3.29696 | 24943 ft | 363 kts | 352° |
| 2026-05-05 18:18 | 37.91863 | 3.29637 | 24955 ft | 362 kts | 352° |
| 2026-05-05 18:19 | 37.94380 | 3.29586 | 24944 ft | 361 kts | 352° |
| 2026-05-05 18:19 | 37.96892 | 3.29536 | 24943 ft | 361 kts | 352° |
| 2026-05-05 18:19 | 37.99408 | 3.29487 | 24943 ft | 361 kts | 352° |
| 2026-05-05 18:19 | 38.01922 | 3.29437 | 24942 ft | 361 kts | 352° |
| 2026-05-05 18:20 | 38.04444 | 3.29386 | 24944 ft | 361 kts | 352° |
| 2026-05-05 18:20 | 38.06956 | 3.29334 | 24942 ft | 362 kts | 352° |
| 2026-05-05 18:20 | 38.09476 | 3.29281 | 24943 ft | 362 kts | 352° |
| 2026-05-05 18:20 | 38.11993 | 3.29230 | 24943 ft | 362 kts | 352° |
| 2026-05-05 18:21 | 38.14508 | 3.29179 | 24946 ft | 361 kts | 352° |
| 2026-05-05 18:21 | 38.17017 | 3.29141 | 24942 ft | 360 kts | 352° |
| 2026-05-05 18:21 | 38.19520 | 3.29111 | 24940 ft | 360 kts | 352° |
| 2026-05-05 18:21 | 38.21994 | 3.29082 | 24940 ft | 361 kts | 352° |
| 2026-05-05 18:22 | 38.24509 | 3.29052 | 24937 ft | 360 kts | 352° |
| 2026-05-05 18:22 | 38.27016 | 3.29021 | 24937 ft | 360 kts | 352° |
| 2026-05-05 18:22 | 38.29522 | 3.28989 | 24937 ft | 360 kts | 352° |
| 2026-05-05 18:22 | 38.32027 | 3.28959 | 24937 ft | 360 kts | 352° |
| 2026-05-05 18:23 | 38.34541 | 3.28928 | 24935 ft | 360 kts | 352° |
| 2026-05-05 18:23 | 38.37052 | 3.28898 | 24935 ft | 360 kts | 352° |
| 2026-05-05 18:23 | 38.39567 | 3.28868 | 24935 ft | 360 kts | 352° |
| 2026-05-05 18:23 | 38.42073 | 3.28838 | 24934 ft | 360 kts | 352° |
| 2026-05-05 18:24 | 38.44579 | 3.28807 | 24929 ft | 360 kts | 352° |
| 2026-05-05 18:24 | 38.47089 | 3.28777 | 24929 ft | 360 kts | 352° |
| 2026-05-05 18:24 | 38.49598 | 3.28747 | 24929 ft | 360 kts | 352° |
| 2026-05-05 18:24 | 38.52106 | 3.28718 | 24929 ft | 360 kts | 352° |
| 2026-05-05 18:25 | 38.54616 | 3.28688 | 24929 ft | 360 kts | 352° |
| 2026-05-05 18:25 | 38.56275 | 3.28668 | 24929 ft | 360 kts | 352° |
| 2026-05-05 18:25 | 38.59596 | 3.28630 | 24929 ft | 360 kts | 352° |
| 2026-05-05 18:25 | 38.62100 | 3.28601 | 24933 ft | 360 kts | 352° |
| 2026-05-05 18:26 | 38.64613 | 3.28577 | 24930 ft | 361 kts | 352° |
| 2026-05-05 18:26 | 38.67123 | 3.28554 | 24915 ft | 361 kts | 352° |
| 2026-05-05 18:26 | 38.69638 | 3.28531 | 24737 ft | 362 kts | 352° |
| 2026-05-05 18:26 | 38.72154 | 3.28506 | 24385 ft | 360 kts | 352° |
| 2026-05-05 18:27 | 38.74657 | 3.28481 | 23889 ft | 361 kts | 352° |
| 2026-05-05 18:27 | 38.77196 | 3.28447 | 23084 ft | 369 kts | 352° |
| 2026-05-05 18:27 | 38.79794 | 3.28394 | 22180 ft | 377 kts | 352° |
| 2026-05-05 18:27 | 38.82444 | 3.28321 | 21256 ft | 384 kts | 352° |
| 2026-05-05 18:28 | 38.87914 | 3.28114 | 19342 ft | 400 kts | 352° |
| 2026-05-05 18:28 | 38.90683 | 3.27992 | 18720 ft | 396 kts | 352° |
| 2026-05-05 18:28 | 38.93422 | 3.27868 | 18131 ft | 392 kts | 352° |
| 2026-05-05 18:29 | 38.96100 | 3.27742 | 17449 ft | 388 kts | 352° |
| 2026-05-05 18:29 | 38.98791 | 3.27609 | 16774 ft | 385 kts | 352° |
| 2026-05-05 18:29 | 39.01453 | 3.27469 | 16124 ft | 381 kts | 352° |
| 2026-05-05 18:29 | 39.03917 | 3.27326 | 15525 ft | 379 kts | 352° |
| 2026-05-05 18:30 | 39.06547 | 3.27168 | 14902 ft | 376 kts | 352° |
| 2026-05-05 18:30 | 39.09155 | 3.27005 | 14274 ft | 374 kts | 352° |
| 2026-05-05 18:30 | 39.11746 | 3.26839 | 13665 ft | 371 kts | 352° |
| 2026-05-05 18:30 | 39.14314 | 3.26666 | 13025 ft | 368 kts | 352° |
| 2026-05-05 18:31 | 39.16857 | 3.26495 | 12414 ft | 365 kts | 352° |
| 2026-05-05 18:31 | 39.19378 | 3.26324 | 11814 ft | 361 kts | 352° |
| 2026-05-05 18:31 | 39.21881 | 3.26149 | 11220 ft | 358 kts | 352° |
| 2026-05-05 18:31 | 39.24323 | 3.25974 | 10650 ft | 355 kts | 352° |
| 2026-05-05 18:32 | 39.26776 | 3.25796 | 10192 ft | 349 kts | 352° |
| 2026-05-05 18:32 | 39.29214 | 3.25620 | 10034 ft | 354 kts | 352° |
| 2026-05-05 18:32 | 39.31668 | 3.25436 | 9992 ft | 351 kts | 352° |
| 2026-05-05 18:32 | 39.34099 | 3.25239 | 9669 ft | 350 kts | 352° |
| 2026-05-05 18:33 | 39.36537 | 3.25034 | 8914 ft | 353 kts | 352° |
| 2026-05-05 18:33 | 39.39009 | 3.24815 | 7970 ft | 358 kts | 352° |
| 2026-05-05 18:33 | 39.41519 | 3.24571 | 6988 ft | 364 kts | 352° |
| 2026-05-05 18:33 | 39.44021 | 3.24312 | 6431 ft | 351 kts | 352° |
| 2026-05-05 18:34 | 39.46347 | 3.24079 | 6156 ft | 327 kts | 352° |
| 2026-05-05 18:34 | 39.48531 | 3.23872 | 6014 ft | 303 kts | 352° |
| 2026-05-05 18:34 | 39.50541 | 3.23692 | 5981 ft | 276 kts | 352° |
| 2026-05-05 18:34 | 39.52375 | 3.23540 | 5976 ft | 252 kts | 352° |
| 2026-05-05 18:35 | 39.54062 | 3.23417 | 5884 ft | 236 kts | 352° |
| 2026-05-05 18:35 | 39.55721 | 3.23300 | 5326 ft | 242 kts | 352° |
| 2026-05-05 18:35 | 39.57420 | 3.23167 | 4713 ft | 248 kts | 352° |
| 2026-05-05 18:35 | 39.59151 | 3.23021 | 4206 ft | 247 kts | 352° |
| 2026-05-05 18:36 | 39.60824 | 3.22883 | 4022 ft | 234 kts | 352° |
| 2026-05-05 18:36 | 39.62393 | 3.22763 | 3978 ft | 216 kts | 352° |
| 2026-05-05 18:36 | 39.63827 | 3.22657 | 3967 ft | 197 kts | 352° |
| 2026-05-05 18:36 | 39.65137 | 3.22579 | 3972 ft | 180 kts | 352° |
| 2026-05-05 18:37 | 39.66449 | 3.22500 | 4155 ft | 207 kts | 352° |
| 2026-05-05 18:37 | 39.68073 | 3.22344 | 4434 ft | 262 kts | 347° |
| 2026-05-05 18:37 | 39.69920 | 3.21406 | 4279 ft | 316 kts | 323° |
| 2026-05-05 18:37 | 39.71544 | 3.19289 | 4261 ft | 337 kts | 302° |
| 2026-05-05 18:38 | 39.72451 | 3.16585 | 4124 ft | 316 kts | 282° |
| 2026-05-05 18:38 | 39.72626 | 3.13873 | 3884 ft | 289 kts | 272° |
| 2026-05-05 18:38 | 39.72697 | 3.11360 | 3666 ft | 266 kts | 272° |
| 2026-05-05 18:38 | 39.72755 | 3.09060 | 3492 ft | 246 kts | 272° |
| 2026-05-05 18:39 | 39.72805 | 3.06897 | 3347 ft | 230 kts | 272° |
| 2026-05-05 18:39 | 39.72644 | 3.04898 | 3137 ft | 220 kts | 250° |
| 2026-05-05 18:39 | 39.71738 | 3.03420 | 3085 ft | 202 kts | 217° |
| 2026-05-05 18:39 | 39.70522 | 3.02698 | 2980 ft | 182 kts | 207° |
| 2026-05-05 18:40 | 39.69415 | 3.02116 | 2977 ft | 166 kts | 207° |
| 2026-05-05 18:40 | 39.68362 | 3.01552 | 2979 ft | 159 kts | 207° |
| 2026-05-05 18:40 | 39.67363 | 3.01022 | 2975 ft | 156 kts | 207° |
| 2026-05-05 18:40 | 39.66249 | 3.00428 | 2979 ft | 187 kts | 207° |
| 2026-05-05 18:41 | 39.65030 | 2.99766 | 2974 ft | 189 kts | 207° |
| 2026-05-05 18:41 | 39.63940 | 2.99190 | 2968 ft | 152 kts | 207° |
| 2026-05-05 18:41 | 39.63028 | 2.98738 | 2972 ft | 129 kts | 207° |
| 2026-05-05 18:41 | 39.62156 | 2.98312 | 2983 ft | 142 kts | 207° |
| 2026-05-05 18:42 | 39.61197 | 2.97817 | 2983 ft | 154 kts | 207° |
| 2026-05-05 18:42 | 39.60183 | 2.97281 | 2979 ft | 159 kts | 207° |
| 2026-05-05 18:42 | 39.59148 | 2.96758 | 2981 ft | 160 kts | 207° |
| 2026-05-05 18:42 | 39.58100 | 2.96223 | 2979 ft | 163 kts | 207° |
| 2026-05-05 18:43 | 39.57044 | 2.95662 | 2978 ft | 165 kts | 207° |
| 2026-05-05 18:43 | 39.55980 | 2.95095 | 2979 ft | 166 kts | 207° |
| 2026-05-05 18:43 | 39.55270 | 2.94718 | 2981 ft | 167 kts | 207° |
| 2026-05-05 18:43 | 39.54175 | 2.93480 | 2979 ft | 158 kts | 252° |
| 2026-05-05 18:44 | 39.54101 | 2.92071 | 2980 ft | 158 kts | 272° |
| 2026-05-05 18:44 | 39.54143 | 2.90655 | 2985 ft | 158 kts | 272° |
| 2026-05-05 18:44 | 39.54173 | 2.89713 | 2983 ft | 157 kts | 272° |
| 2026-05-05 18:44 | 39.54207 | 2.88291 | 2976 ft | 158 kts | 271° |
| 2026-05-05 18:45 | 39.54224 | 2.86829 | 2734 ft | 169 kts | 270° |
| 2026-05-05 18:45 | 39.54226 | 2.85263 | 2385 ft | 178 kts | 269° |
| 2026-05-05 18:45 | 39.54333 | 2.83643 | 2031 ft | 183 kts | 282° |
| 2026-05-05 18:45 | 39.54906 | 2.82287 | 1624 ft | 162 kts | 304° |
| 2026-05-05 18:46 | 39.55506 | 2.81170 | 1378 ft | 139 kts | 296° |
| 2026-05-05 18:46 | 39.55904 | 2.80099 | 1286 ft | 143 kts | 291° |
| 2026-05-05 18:46 | 39.56355 | 2.78769 | 1392 ft | 172 kts | 291° |
| 2026-05-05 18:46 | 39.56684 | 2.77325 | 1365 ft | 160 kts | 270° |
| 2026-05-05 18:47 | 39.56339 | 2.76079 | 997 ft | 157 kts | 230° |
| 2026-05-05 18:47 | 39.55593 | 2.75149 | 968 ft | 137 kts | 224° |
| 2026-05-05 18:47 | 39.54950 | 2.74318 | 1783 ft | 126 kts | 227° |
| 2026-05-05 18:47 | 39.54340 | 2.73500 | 2561 ft | 126 kts | 230° |
| 2026-05-05 18:48 | 39.53744 | 2.72677 | 3326 ft | 123 kts | 232° |
| 2026-05-05 18:48 | 39.53116 | 2.71767 | 3581 ft | 145 kts | 233° |
| 2026-05-05 18:48 | 39.52487 | 2.70814 | 3470 ft | 154 kts | 233° |
| 2026-05-05 18:48 | 39.51915 | 2.69923 | 3282 ft | 149 kts | 234° |
| 2026-05-05 18:49 | 39.51261 | 2.68912 | 3309 ft | 151 kts | 234° |
| 2026-05-05 18:49 | 39.50579 | 2.67870 | 3533 ft | 154 kts | 234° |
| 2026-05-05 18:49 | 39.49883 | 2.66813 | 3526 ft | 154 kts | 232° |
| 2026-05-05 18:49 | 39.49184 | 2.65760 | 3537 ft | 154 kts | 232° |
| 2026-05-05 18:50 | 39.48601 | 2.64617 | 3378 ft | 152 kts | 256° |
| 2026-05-05 18:50 | 39.48572 | 2.63277 | 3031 ft | 149 kts | 272° |
| 2026-05-05 18:50 | 39.48620 | 2.61928 | 2994 ft | 150 kts | 272° |
| 2026-05-05 18:50 | 39.48665 | 2.60574 | 2994 ft | 150 kts | 272° |
| 2026-05-05 18:51 | 39.48709 | 2.59220 | 2994 ft | 151 kts | 272° |